createdAt,value
2023-02-28T00:01:26.998Z,-1.79
2023-02-28T00:03:54.138Z,-1.85
2023-02-28T00:06:21.958Z,-1.82
2023-02-28T00:08:49.392Z,-1.89
2023-02-28T00:11:17.348Z,-1.88
2023-02-28T00:13:50.007Z,-1.84
2023-02-28T00:16:20.163Z,-1.79
2023-02-28T00:18:48.762Z,-1.77
2023-02-28T00:21:17.283Z,-1.82
2023-02-28T00:23:45.024Z,-1.85
2023-02-28T00:26:12.247Z,-1.85
2023-02-28T00:28:41.518Z,-1.88
2023-02-28T00:31:08.834Z,-2.07
2023-02-28T00:33:36.876Z,-1.97
2023-02-28T00:36:06.405Z,-1.99
2023-02-28T00:38:36.908Z,-2.04
2023-02-28T00:41:07.487Z,-2.10
2023-02-28T00:43:39.466Z,-2.16
2023-02-28T00:46:07.082Z,-2.22
2023-02-28T00:48:34.410Z,-2.23
2023-02-28T00:51:02.238Z,-2.32
2023-02-28T00:53:30.314Z,-2.40
2023-02-28T00:55:58.242Z,-2.41
2023-02-28T00:58:27.936Z,-2.46
2023-02-28T01:00:55.616Z,-2.54
2023-02-28T01:03:23.847Z,-2.61
2023-02-28T01:05:51.640Z,-2.66
2023-02-28T01:08:18.634Z,-2.71
2023-02-28T01:10:45.835Z,-2.76
2023-02-28T01:13:13.713Z,-2.79
2023-02-28T01:15:46.782Z,-2.75
2023-02-28T01:18:13.868Z,-2.77
2023-02-28T01:20:41.087Z,-2.80
2023-02-28T01:23:09.515Z,-2.77
2023-02-28T01:25:37.477Z,-2.78
2023-02-28T01:28:06.988Z,-2.78
2023-02-28T01:30:34.836Z,-2.72
2023-02-28T01:33:02.281Z,-2.75
2023-02-28T01:35:29.335Z,-2.69
2023-02-28T01:38:00.968Z,-2.63
2023-02-28T01:40:32.253Z,-2.62
2023-02-28T01:42:59.643Z,-2.58
2023-02-28T01:45:35.615Z,-2.56
2023-02-28T01:48:09.457Z,-2.54
2023-02-28T01:50:40.546Z,-2.48
2023-02-28T01:53:13.408Z,-2.43
2023-02-28T01:55:43.948Z,-2.38
2023-02-28T01:58:11.144Z,-2.34
2023-02-28T02:00:40.106Z,-2.31
2023-02-28T02:03:12.159Z,-2.32
2023-02-28T02:05:40.934Z,-2.26
2023-02-28T02:08:12.789Z,-2.23
2023-02-28T02:10:49.083Z,-2.16
2023-02-28T02:13:19.935Z,-2.16
2023-02-28T02:15:58.624Z,-2.12
2023-02-28T02:18:44.714Z,-2.08
2023-02-28T02:21:23.773Z,-2.08
2023-02-28T02:24:38.989Z,-2.05
2023-02-28T02:27:19.266Z,-2.06
2023-02-28T02:29:49.710Z,-2.04
2023-02-28T02:32:47.047Z,-2.07
2023-02-28T02:35:30.333Z,-2.06
2023-02-28T02:38:13.175Z,-2.08
2023-02-28T02:40:56.024Z,-2.07
2023-02-28T02:43:34.890Z,-2.08
2023-02-28T02:46:10.460Z,-2.09
2023-02-28T02:48:44.023Z,-2.08
2023-02-28T02:51:17.936Z,-2.10
2023-02-28T02:53:53.362Z,-2.16
2023-02-28T02:56:24.499Z,-2.13
2023-02-28T02:58:54.899Z,-2.13
2023-02-28T03:01:30.063Z,-2.17
2023-02-28T03:04:20.586Z,-2.17
2023-02-28T03:06:48.576Z,-2.17
2023-02-28T03:09:15.670Z,-2.18
2023-02-28T03:11:43.885Z,-2.23
2023-02-28T03:14:30.935Z,-2.20
2023-02-28T03:17:17.441Z,-2.20
2023-02-28T03:20:11.848Z,-2.25
2023-02-28T03:23:02.799Z,-2.23
2023-02-28T03:25:38.799Z,-2.33
2023-02-28T03:28:29.597Z,-2.32
2023-02-28T03:31:27.702Z,-2.37
2023-02-28T03:34:25.916Z,-2.43
2023-02-28T03:36:56.626Z,-2.41
2023-02-28T03:39:57.730Z,-2.38
2023-02-28T03:42:30.932Z,-2.56
2023-02-28T03:45:24.963Z,-2.42
2023-02-28T03:48:01.997Z,-2.41
2023-02-28T03:50:38.411Z,-2.40
2023-02-28T03:53:23.978Z,-2.36
2023-02-28T03:55:57.560Z,-2.36
2023-02-28T03:58:37.957Z,-2.40
2023-02-28T04:01:17.450Z,-2.38
2023-02-28T04:03:44.788Z,-2.39
2023-02-28T04:06:33.780Z,-2.39
2023-02-28T04:09:02.253Z,-2.39
2023-02-28T04:11:38.645Z,-2.40
2023-02-28T04:14:07.505Z,-2.44
2023-02-28T04:16:36.611Z,-2.44
2023-02-28T04:19:07.028Z,-2.44
2023-02-28T04:21:43.502Z,-2.42
2023-02-28T04:24:15.502Z,-2.43
2023-02-28T04:26:48.040Z,-2.45
2023-02-28T04:29:25.704Z,-2.48
2023-02-28T04:31:56.328Z,-2.53
2023-02-28T04:34:25.003Z,-2.53
2023-02-28T04:37:10.371Z,-2.58
2023-02-28T04:39:39.495Z,-2.60
2023-02-28T04:42:07.471Z,-2.63
2023-02-28T04:44:35.809Z,-2.61
2023-02-28T04:47:03.563Z,-2.66
2023-02-28T04:49:31.650Z,-2.70
2023-02-28T04:51:59.715Z,-2.68
2023-02-28T04:54:27.030Z,-2.65
2023-02-28T04:56:54.827Z,-2.68
2023-02-28T04:59:22.402Z,-2.68
2023-02-28T05:01:51.186Z,-2.72
2023-02-28T05:04:19.347Z,-2.72
2023-02-28T05:06:46.957Z,-2.72
2023-02-28T05:09:14.860Z,-2.68
2023-02-28T05:11:42.955Z,-2.69
2023-02-28T05:14:15.837Z,-2.65
2023-02-28T05:16:44.044Z,-2.61
2023-02-28T05:19:11.618Z,-2.54
2023-02-28T05:21:58.144Z,-2.52
2023-02-28T05:24:25.780Z,-2.43
2023-02-28T05:26:55.203Z,-2.36
2023-02-28T05:29:24.181Z,-2.25
2023-02-28T05:31:51.464Z,-2.18
2023-02-28T05:34:19.076Z,-2.08
2023-02-28T05:36:47.033Z,-2.03
2023-02-28T05:39:14.383Z,-1.95
2023-02-28T05:41:43.682Z,-1.85
2023-02-28T05:44:11.431Z,-1.76
2023-02-28T05:46:39.609Z,-1.66
2023-02-28T05:49:07.779Z,-1.59
2023-02-28T05:51:37.760Z,-1.50
2023-02-28T05:54:05.764Z,-1.42
2023-02-28T05:56:41.707Z,-1.29
2023-02-28T05:59:09.200Z,-1.18
2023-02-28T06:01:40.139Z,-1.15
2023-02-28T06:04:19.260Z,-1.07
2023-02-28T06:06:53.049Z,-1.08
2023-02-28T06:09:22.006Z,-1.08
2023-02-28T06:11:49.404Z,-1.07
2023-02-28T06:14:20.519Z,-1.15
2023-02-28T06:16:48.752Z,-1.17
2023-02-28T06:19:18.262Z,-1.27
2023-02-28T06:21:46.953Z,-1.31
2023-02-28T06:24:14.648Z,-1.26
2023-02-28T06:26:42.326Z,-1.22
2023-02-28T06:29:10.174Z,-1.21
2023-02-28T06:31:38.081Z,-1.17
2023-02-28T06:34:06.880Z,-1.01
2023-02-28T06:36:34.159Z,-0.95
2023-02-28T06:39:02.032Z,-0.85
2023-02-28T06:41:31.396Z,-0.68
2023-02-28T06:44:02.315Z,-0.50
2023-02-28T06:46:30.579Z,-0.25
2023-02-28T06:48:58.915Z,-0.06
2023-02-28T06:51:26.473Z,0.28
2023-02-28T06:53:54.553Z,0.59
2023-02-28T06:56:22.034Z,0.94
2023-02-28T06:58:54.913Z,1.44
2023-02-28T07:01:24.262Z,2.22
2023-02-28T07:03:53.771Z,2.88
2023-02-28T07:06:25.510Z,3.18
2023-02-28T07:08:54.463Z,3.06
2023-02-28T07:11:27.338Z,2.96
2023-02-28T07:13:58.610Z,2.81
2023-02-28T07:16:26.456Z,2.76
2023-02-28T07:18:55.472Z,2.66
2023-02-28T07:21:26.650Z,2.37
2023-02-28T07:23:54.108Z,2.09
2023-02-28T07:26:25.202Z,1.78
2023-02-28T07:28:55.172Z,1.70
2023-02-28T07:31:22.892Z,1.24
2023-02-28T07:33:50.587Z,1.39
2023-02-28T07:36:19.996Z,1.32
2023-02-28T07:38:52.259Z,1.11
2023-02-28T07:41:22.350Z,1.19
2023-02-28T07:43:50.029Z,1.16
2023-02-28T07:46:18.542Z,1.24
2023-02-28T07:48:47.304Z,1.34
2023-02-28T07:51:15.853Z,1.41
2023-02-28T07:53:43.596Z,1.46
2023-02-28T07:56:12.106Z,1.54
2023-02-28T07:58:40.346Z,1.67
2023-02-28T08:01:11.791Z,1.75
2023-02-28T08:03:40.470Z,1.88
2023-02-28T08:06:16.273Z,2.01
2023-02-28T08:08:44.029Z,1.98
2023-02-28T08:11:11.676Z,2.09
2023-02-28T08:13:39.312Z,2.12
2023-02-28T08:16:07.256Z,2.25
2023-02-28T08:18:35.706Z,2.56
2023-02-28T08:21:11.008Z,2.72
2023-02-28T08:23:39.216Z,2.59
2023-02-28T08:26:07.324Z,2.58
2023-02-28T08:28:34.985Z,2.80
2023-02-28T08:31:02.555Z,2.91
2023-02-28T08:33:30.201Z,3.18
2023-02-28T08:35:58.147Z,3.59
2023-02-28T08:38:26.162Z,4.16
2023-02-28T08:41:02.014Z,4.50
2023-02-28T08:43:30.363Z,4.66
2023-02-28T08:45:59.289Z,4.76
2023-02-28T08:48:27.716Z,4.73
2023-02-28T08:51:08.318Z,4.81
2023-02-28T08:53:37.566Z,4.93
2023-02-28T08:56:08.527Z,5.03
2023-02-28T08:58:36.981Z,5.01
2023-02-28T09:01:31.510Z,5.56
2023-02-28T09:03:59.636Z,6.64
2023-02-28T09:06:28.712Z,6.85
2023-02-28T09:09:02.964Z,7.44
2023-02-28T09:11:31.730Z,8.44
2023-02-28T09:14:01.574Z,8.33
2023-02-28T09:16:28.842Z,8.15
2023-02-28T09:18:56.911Z,8.33
2023-02-28T09:21:25.024Z,8.56
2023-02-28T09:23:52.885Z,8.96
2023-02-28T09:26:24.931Z,9.62
2023-02-28T09:28:53.390Z,9.92
2023-02-28T09:31:24.306Z,10.33
2023-02-28T09:33:54.486Z,10.69
2023-02-28T09:36:28.988Z,11.20
2023-02-28T09:39:02.015Z,11.25
2023-02-28T09:41:43.211Z,11.26
2023-02-28T09:44:18.645Z,11.20
2023-02-28T09:46:50.082Z,11.08
2023-02-28T09:49:26.967Z,10.83
2023-02-28T09:52:10.507Z,10.80
2023-02-28T09:54:38.637Z,11.18
2023-02-28T09:57:05.955Z,11.13
2023-02-28T10:00:13.835Z,11.17
2023-02-28T10:02:47.352Z,11.18
2023-02-28T10:05:21.235Z,11.34
2023-02-28T10:08:01.014Z,11.71
2023-02-28T10:10:37.122Z,12.18
2023-02-28T10:13:14.764Z,12.59
2023-02-28T10:15:44.097Z,12.74
2023-02-28T10:18:17.093Z,13.01
2023-02-28T10:20:45.032Z,13.16
2023-02-28T10:23:23.895Z,13.39
2023-02-28T10:26:02.493Z,13.52
2023-02-28T10:28:33.005Z,13.65
2023-02-28T10:31:01.432Z,13.73
2023-02-28T10:33:38.583Z,13.75
2023-02-28T10:36:10.664Z,13.62
2023-02-28T10:38:40.891Z,13.62
2023-02-28T10:41:09.979Z,13.60
2023-02-28T10:43:39.640Z,13.59
2023-02-28T10:46:24.458Z,13.52
2023-02-28T10:49:06.193Z,13.76
2023-02-28T10:51:40.379Z,13.75
2023-02-28T10:54:18.303Z,13.82
2023-02-28T10:56:46.586Z,13.81
2023-02-28T10:59:17.042Z,13.96
2023-02-28T11:01:50.333Z,14.02
2023-02-28T11:04:39.062Z,14.06
2023-02-28T11:07:08.415Z,14.09
2023-02-28T11:09:40.023Z,13.98
2023-02-28T11:12:10.363Z,14.00
2023-02-28T11:14:49.351Z,13.91
2023-02-28T11:17:23.822Z,13.84
2023-02-28T11:19:58.626Z,13.88
2023-02-28T11:22:33.186Z,13.92
2023-02-28T11:25:08.145Z,13.86
2023-02-28T11:27:38.900Z,13.80
2023-02-28T11:30:24.205Z,13.58
2023-02-28T11:32:52.339Z,13.75
2023-02-28T11:35:27.706Z,13.71
2023-02-28T11:37:55.357Z,13.83
2023-02-28T11:40:50.936Z,13.82
2023-02-28T11:43:46.009Z,13.87
2023-02-28T11:46:42.908Z,13.94
2023-02-28T11:49:28.977Z,13.80
2023-02-28T11:52:34.691Z,13.82
2023-02-28T11:55:22.696Z,13.72
2023-02-28T11:58:11.757Z,13.69
2023-02-28T12:01:02.146Z,13.58
2023-02-28T12:03:46.830Z,13.60
2023-02-28T12:06:22.702Z,13.41
2023-02-28T12:09:15.074Z,13.31
2023-02-28T12:11:55.005Z,13.29
2023-02-28T12:14:40.858Z,13.39
2023-02-28T12:17:17.086Z,13.44
2023-02-28T12:19:57.392Z,13.25
2023-02-28T12:22:27.433Z,13.25
2023-02-28T12:25:25.239Z,13.23
2023-02-28T12:27:56.170Z,13.08
2023-02-28T12:31:07.433Z,12.87
2023-02-28T12:33:40.857Z,12.60
2023-02-28T12:36:16.922Z,12.30
2023-02-28T12:39:10.036Z,12.07
2023-02-28T12:41:43.867Z,11.93
2023-02-28T12:44:21.819Z,11.18
2023-02-28T12:46:58.045Z,10.49
2023-02-28T12:49:48.924Z,9.56
2023-02-28T12:52:24.602Z,8.49
2023-02-28T12:55:00.193Z,7.52
2023-02-28T12:57:42.601Z,6.74
2023-02-28T13:00:36.029Z,5.78
2023-02-28T13:03:16.637Z,5.32
2023-02-28T13:06:23.925Z,4.62
2023-02-28T13:08:54.596Z,4.14
2023-02-28T13:11:32.596Z,3.88
2023-02-28T13:14:20.341Z,3.55
2023-02-28T13:17:15.123Z,3.19
2023-02-28T13:19:46.872Z,3.01
2023-02-28T13:22:39.335Z,2.78
2023-02-28T13:25:35.242Z,2.64
2023-02-28T13:28:10.534Z,2.58
2023-02-28T13:30:57.040Z,2.28
2023-02-28T13:33:33.127Z,2.21
2023-02-28T13:36:16.723Z,2.16
2023-02-28T13:38:56.595Z,2.12
2023-02-28T13:41:45.000Z,2.08
2023-02-28T13:44:19.744Z,2.00
2023-02-28T13:46:50.126Z,1.90
2023-02-28T13:49:27.758Z,1.89
2023-02-28T13:52:07.449Z,1.81
2023-02-28T13:55:04.841Z,1.86
2023-02-28T13:57:46.011Z,1.77
2023-02-28T14:00:35.419Z,1.78
2023-02-28T14:03:44.299Z,1.70
2023-02-28T14:06:18.307Z,1.72
2023-02-28T14:08:56.685Z,1.67
2023-02-28T14:11:30.767Z,1.67
2023-02-28T14:13:58.644Z,1.61
2023-02-28T14:16:31.542Z,1.60
2023-02-28T14:19:12.849Z,1.55
2023-02-28T14:21:52.389Z,1.52
2023-02-28T14:24:38.455Z,1.43
2023-02-28T14:27:53.053Z,1.39
2023-02-28T14:30:52.701Z,1.39
2023-02-28T14:33:50.930Z,1.29
2023-02-28T14:36:36.911Z,1.22
2023-02-28T14:39:29.267Z,1.18
2023-02-28T14:41:56.897Z,1.08
2023-02-28T14:44:27.510Z,1.07
2023-02-28T14:47:08.119Z,1.07
2023-02-28T14:49:54.520Z,0.90
2023-02-28T14:52:31.140Z,0.91
2023-02-28T14:55:14.366Z,0.86
2023-02-28T14:57:52.557Z,0.80
2023-02-28T15:00:32.021Z,0.65
2023-02-28T15:03:01.969Z,0.57
2023-02-28T15:05:36.172Z,0.51
2023-02-28T15:08:16.022Z,0.37
2023-02-28T15:10:55.072Z,0.25
2023-02-28T15:13:24.141Z,0.11
2023-02-28T15:16:02.369Z,0.03
2023-02-28T15:18:39.587Z,-0.06
2023-02-28T15:21:14.439Z,-0.18
2023-02-28T15:23:47.109Z,-0.32
2023-02-28T15:26:22.287Z,-0.44
2023-02-28T15:29:00.501Z,-0.59
2023-02-28T15:31:39.051Z,-0.70
2023-02-28T15:34:23.269Z,-0.86
2023-02-28T15:36:52.243Z,-0.96
2023-02-28T15:39:23.209Z,-1.08
2023-02-28T15:41:51.090Z,-1.24
2023-02-28T15:44:26.246Z,-1.35
2023-02-28T15:47:04.598Z,-1.52
2023-02-28T15:49:51.050Z,-1.63
2023-02-28T15:52:25.524Z,-1.71
2023-02-28T15:54:56.806Z,-1.84
2023-02-28T15:57:27.625Z,-1.91
2023-02-28T16:00:01.714Z,-1.97
2023-02-28T16:02:40.104Z,-2.06
2023-02-28T16:05:07.445Z,-2.13
2023-02-28T16:07:36.273Z,-2.15
2023-02-28T16:10:03.686Z,-2.15
2023-02-28T16:12:35.044Z,-2.18
2023-02-28T16:15:30.108Z,-2.23
2023-02-28T16:17:58.975Z,-2.24
2023-02-28T16:20:31.905Z,-2.26
2023-02-28T16:23:02.636Z,-2.28
2023-02-28T16:25:45.143Z,-2.35
2023-02-28T16:28:21.951Z,-2.39
2023-02-28T16:30:49.451Z,-2.44
2023-02-28T16:33:16.915Z,-2.54
2023-02-28T16:35:44.324Z,-2.55
2023-02-28T16:38:11.686Z,-2.63
2023-02-28T16:40:39.030Z,-2.73
2023-02-28T16:43:16.574Z,-2.78
2023-02-28T16:45:44.127Z,-2.79
2023-02-28T16:48:16.951Z,-2.85
2023-02-28T16:50:45.764Z,-2.85
2023-02-28T16:53:13.231Z,-2.91
2023-02-28T16:55:40.882Z,-2.94
2023-02-28T16:58:08.133Z,-2.94
2023-02-28T17:00:35.490Z,-2.99
2023-02-28T17:03:05.762Z,-3.03
2023-02-28T17:05:40.183Z,-3.07
2023-02-28T17:08:07.604Z,-3.13
2023-02-28T17:10:35.081Z,-3.14
2023-02-28T17:13:13.146Z,-3.18
2023-02-28T17:15:42.423Z,-3.22
2023-02-28T17:18:20.046Z,-3.25
2023-02-28T17:20:47.615Z,-3.31
2023-02-28T17:23:15.089Z,-3.38
2023-02-28T17:25:42.631Z,-3.43
2023-02-28T17:28:10.430Z,-3.46
2023-02-28T17:30:37.749Z,-3.50
2023-02-28T17:33:05.039Z,-3.52
2023-02-28T17:35:32.484Z,-3.52
2023-02-28T17:37:59.914Z,-3.55
2023-02-28T17:40:27.079Z,-3.60
2023-02-28T17:42:56.391Z,-3.68
2023-02-28T17:45:23.766Z,-3.68
2023-02-28T17:47:51.611Z,-3.74
2023-02-28T17:50:22.311Z,-3.85
2023-02-28T17:52:51.551Z,-3.87
2023-02-28T17:55:21.290Z,-3.94
2023-02-28T17:57:48.654Z,-3.98
2023-02-28T18:00:21.450Z,-4.07
2023-02-28T18:02:48.629Z,-4.15
2023-02-28T18:05:16.322Z,-4.17
2023-02-28T18:07:44.581Z,-4.22
2023-02-28T18:10:20.615Z,-4.27
2023-02-28T18:12:49.564Z,-4.28
2023-02-28T18:15:18.270Z,-4.35
2023-02-28T18:17:45.794Z,-4.37
2023-02-28T18:20:14.758Z,-4.42
2023-02-28T18:22:43.349Z,-4.43
2023-02-28T18:25:18.319Z,-4.45
2023-02-28T18:27:58.521Z,-4.46
2023-02-28T18:30:31.816Z,-4.46
2023-02-28T18:33:00.123Z,-4.47
2023-02-28T18:35:36.816Z,-4.47
2023-02-28T18:38:07.380Z,-4.50
2023-02-28T18:40:35.737Z,-4.50
2023-02-28T18:43:05.204Z,-4.51
2023-02-28T18:45:36.559Z,-4.53
2023-02-28T18:48:06.361Z,-4.54
2023-02-28T18:50:36.398Z,-4.53
2023-02-28T18:53:03.995Z,-4.52
2023-02-28T18:55:36.940Z,-4.53
2023-02-28T18:58:05.096Z,-4.55
2023-02-28T19:00:34.448Z,-4.58
2023-02-28T19:03:01.972Z,-4.52
2023-02-28T19:05:35.938Z,-4.57
2023-02-28T19:08:05.772Z,-4.57
2023-02-28T19:10:34.335Z,-4.51
2023-02-28T19:13:03.555Z,-4.51
2023-02-28T19:15:32.479Z,-4.46
2023-02-28T19:18:01.930Z,-4.48
2023-02-28T19:20:30.214Z,-4.52
2023-02-28T19:23:00.472Z,-4.57
2023-02-28T19:25:30.007Z,-4.61
2023-02-28T19:27:58.696Z,-4.63
2023-02-28T19:30:27.343Z,-4.65
2023-02-28T19:32:57.867Z,-4.71
2023-02-28T19:35:26.103Z,-4.74
2023-02-28T19:37:53.757Z,-4.76
2023-02-28T19:40:21.272Z,-4.81
2023-02-28T19:42:48.356Z,-4.78
2023-02-28T19:45:15.998Z,-4.76
2023-02-28T19:47:43.507Z,-4.79
2023-02-28T19:50:11.197Z,-4.80
2023-02-28T19:52:38.166Z,-4.79
2023-02-28T19:55:05.730Z,-4.76
2023-02-28T19:57:33.086Z,-4.79
2023-02-28T20:00:00.686Z,-4.75
2023-02-28T20:02:29.446Z,-4.74
2023-02-28T20:04:59.883Z,-4.72
2023-02-28T20:07:28.058Z,-4.72
2023-02-28T20:09:58.520Z,-4.70
2023-02-28T20:12:26.807Z,-4.74
2023-02-28T20:14:57.718Z,-4.66
2023-02-28T20:17:25.423Z,-4.69
2023-02-28T20:19:52.639Z,-4.62
2023-02-28T20:22:19.822Z,-4.69
2023-02-28T20:24:48.260Z,-4.61
2023-02-28T20:27:16.101Z,-4.61
2023-02-28T20:29:43.289Z,-4.55
2023-02-28T20:32:10.881Z,-4.54
2023-02-28T20:34:38.023Z,-4.54
2023-02-28T20:37:05.302Z,-4.52
2023-02-28T20:39:32.696Z,-4.53
2023-02-28T20:42:00.141Z,-4.51
2023-02-28T20:44:27.376Z,-4.51
2023-02-28T20:46:54.904Z,-4.50
2023-02-28T20:49:23.177Z,-4.49
2023-02-28T20:51:50.387Z,-4.49
2023-02-28T20:54:18.299Z,-4.49
2023-02-28T20:56:45.979Z,-4.47
2023-02-28T20:59:13.321Z,-4.47
2023-02-28T21:01:45.025Z,-4.47
2023-02-28T21:04:12.633Z,-4.50
2023-02-28T21:06:46.918Z,-4.51
2023-02-28T21:09:15.964Z,-4.52
2023-02-28T21:11:43.668Z,-4.50
2023-02-28T21:14:18.051Z,-4.53
2023-02-28T21:16:46.410Z,-4.50
2023-02-28T21:19:13.825Z,-4.57
2023-02-28T21:21:48.117Z,-4.58
2023-02-28T21:24:17.502Z,-4.53
2023-02-28T21:26:46.704Z,-4.57
2023-02-28T21:29:15.055Z,-4.58
2023-02-28T21:31:42.638Z,-4.58
2023-02-28T21:34:12.434Z,-4.62
2023-02-28T21:36:45.900Z,-4.61
2023-02-28T21:39:20.054Z,-4.63
2023-02-28T21:41:48.133Z,-4.67
2023-02-28T21:44:23.003Z,-4.62
2023-02-28T21:46:55.205Z,-4.62
2023-02-28T21:49:23.102Z,-4.65
2023-02-28T21:51:50.366Z,-4.61
2023-02-28T21:54:17.658Z,-4.59
2023-02-28T21:56:44.906Z,-4.60
2023-02-28T21:59:12.003Z,-4.64
2023-02-28T22:01:44.352Z,-4.66
2023-02-28T22:04:23.950Z,-4.71
2023-02-28T22:07:01.785Z,-4.78
2023-02-28T22:09:29.241Z,-4.80
2023-02-28T22:11:57.626Z,-4.81
2023-02-28T22:14:25.361Z,-4.78
2023-02-28T22:16:54.746Z,-4.79
2023-02-28T22:19:28.303Z,-4.77
2023-02-28T22:21:56.356Z,-4.78
2023-02-28T22:24:24.892Z,-4.79
2023-02-28T22:26:53.042Z,-4.82
2023-02-28T22:29:20.411Z,-4.81
2023-02-28T22:31:48.137Z,-4.77
2023-02-28T22:34:15.643Z,-4.74
2023-02-28T22:36:44.063Z,-4.72
2023-02-28T22:39:12.028Z,-4.65
2023-02-28T22:41:39.723Z,-4.65
2023-02-28T22:44:07.575Z,-4.64
2023-02-28T22:46:38.707Z,-4.61
2023-02-28T22:49:06.978Z,-4.59
2023-02-28T22:51:34.972Z,-4.57
2023-02-28T22:54:02.543Z,-4.47
2023-02-28T22:56:30.803Z,-4.49
2023-02-28T22:59:00.162Z,-4.47
2023-02-28T23:01:30.891Z,-4.40
2023-02-28T23:03:58.955Z,-4.35
2023-02-28T23:06:26.146Z,-4.37
2023-02-28T23:08:56.227Z,-4.30
2023-02-28T23:11:30.763Z,-4.23
2023-02-28T23:14:01.288Z,-4.23
2023-02-28T23:16:33.384Z,-4.21
2023-02-28T23:19:03.030Z,-4.18
2023-02-28T23:21:30.827Z,-4.17
2023-02-28T23:23:58.293Z,-4.14
2023-02-28T23:26:25.604Z,-4.16
2023-02-28T23:28:52.730Z,-4.11
2023-02-28T23:31:20.749Z,-4.15
2023-02-28T23:33:48.183Z,-4.12
2023-02-28T23:36:17.376Z,-4.08
2023-02-28T23:38:49.103Z,-4.12
2023-02-28T23:41:16.943Z,-4.12
2023-02-28T23:43:44.892Z,-4.12
2023-02-28T23:46:13.673Z,-4.09
2023-02-28T23:48:41.273Z,-4.10
2023-02-28T23:51:14.925Z,-4.14
2023-02-28T23:53:44.808Z,-4.12
2023-02-28T23:56:17.187Z,-4.13
2023-02-28T23:58:47.154Z,-4.11
